x

Point Arguello, Ca (ptgc1) Weather Station

2:00pm - Sat 21st Oct 2017 All times are PDT. -7 hours from GMT.

  • Wind
    30mph, 33mph gusts
  • Air Temp 58°f
  • Sea Pressure 1019.6mb
  • Point Arguello, Ca
  • Point Arguello, Ca

More Historic Weather Station data

Upgrade to MSW Pro to gain access to the past 30 days of data for over 8000 Wavebouys and Weather Stations around the globe.

Join

Comparision Forecast

View Surf forecast
   
Sat 10/21 2:00pm 30 33 mph 1019.6mb 58f
1:00pm 36 38 mph 1019.9mb 57f
12:00pm 37 39 mph 1020mb 57f
11:00am 37 40 mph 1020.1mb 56f
10:00am 37 41 mph 1020mb 56f
9:00am 34 39 mph 1020.1mb 56f
8:00am 38 40 mph 1019.1mb 56f
7:00am 34 38 mph 1019mb 56f
6:00am 31 33 mph 1019mb 56f
5:00am 30 33 mph 1018.9mb 56f
4:00am 31 33 mph 1018.6mb 56f
3:00am 30 31 mph 1019.1mb 57f
2:00am 29 31 mph 1019.1mb 56f
1:00am 29 32 mph 1019.1mb 56f
12:00am 31 33 mph 1018.8mb 56f
Fri 10/20 11:00pm 31 34 mph 1018.6mb 57f
10:00pm 37 41 mph 1018mb 57f
9:00pm 36 40 mph 1017.9mb 58f
8:00pm 38 43 mph 1017.4mb 58f
7:00pm 33 45 mph 1016.9mb 58f
6:00pm 39 41 mph 1016.2mb 58f
5:00pm 38 40 mph 1016.4mb 58f
4:00pm 36 41 mph 1016.3mb 58f
3:00pm 37 41 mph 1015.9mb 58f
2:00pm 34 38 mph 1016.1mb 58f
1:00pm 33 37 mph 1016.9mb 58f
12:00pm 30 31 mph 1017.2mb 58f
11:00am 26 29 mph 1016.9mb 58f
10:00am 30 32 mph 1017mb 57f
9:00am 31 34 mph 1016.5mb 58f
7:00am 21 24 mph 1015.7mb 58f
6:00am 11 14 mph 1016mb 59f
5:00am 9 10 mph 1015.6mb 59f
4:00am 13 15 mph 1015.3mb 59f
3:00am 16 17 mph 1015.4mb 59f
2:00am 14 15 mph 1015.3mb 58f
1:00am 20 22 mph 1015.5mb 58f
12:00am 18 20 mph 1016mb 58f
Thu 10/19 11:00pm 18 21 mph 1015.8mb 58f
10:00pm 20 21 mph 1015.6mb 58f
9:00pm 18 20 mph 1015.1mb 58f
8:00pm 18 21 mph 1014.6mb 58f
7:00pm 23 24 mph 1014.3mb 58f
6:00pm 23 24 mph 1014.1mb 58f
5:00pm 21 22 mph 1014.5mb 58f
4:00pm 24 26 mph 1014.9mb 58f
3:00pm 24 25 mph 1014.9mb 57f
2:00pm 24 25 mph 1014.7mb 57f
1:00pm 23 24 mph 1015.3mb 56f
12:00pm 23 25 mph 1015.5mb 57f
11:00am 29 31 mph 1015.5mb 56f
10:00am 22 24 mph 1016.2mb 55f
9:00am 21 23 mph 1015.8mb 54f
8:00am 22 23 mph 1014.8mb 53f
7:00am 25 29 mph 1014.6mb 55f
6:00am 22 23 mph 1014.2mb 54f
5:00am 22 25 mph 1014.2mb 54f
4:00am 28 30 mph 1014.3mb 54f
3:00am 31 34 mph 1014.9mb 55f
2:00am 26 30 mph 1015.5mb 56f
1:00am 24 26 mph 1015.4mb 55f
12:00am 28 31 mph 1015mb 56f
Wed 10/18 11:00pm 30 33 mph 1015.2mb 56f
10:00pm 29 30 mph 1015.8mb 57f
9:00pm 29 30 mph 1015.4mb 57f
8:00pm 29 32 mph 1014.8mb 57f
7:00pm 30 31 mph 1015mb 57f
6:00pm 29 30 mph 1015.1mb 57f
5:00pm 26 30 mph 1015.5mb 57f
4:00pm 28 30 mph 1015.6mb 57f
3:00pm 24 26 mph 1016.1mb 57f
2:00pm 24 26 mph 1016.4mb 57f
1:00pm 24 26 mph 1017mb 57f
12:00pm 26 28 mph 1017.4mb 58f
11:00am 26 28 mph 1017.1mb 58f
10:00am 25 28 mph 1016.8mb 58f
9:00am 25 26 mph 1016.4mb 59f
8:00am 24 25 mph 1015.9mb 59f
7:00am 22 23 mph 1015.8mb 60f
6:00am 24 25 mph 1015.5mb 60f
5:00am 20 22 mph 1014.8mb 60f
4:00am 22 24 mph 1015.2mb 62f
3:00am 21 24 mph 1015mb 62f
2:00am 20 22 mph 1015.1mb 61f
1:00am 22 24 mph 1015.2mb 61f
12:00am 20 22 mph 1015.5mb 62f
Tue 10/17 11:00pm 25 28 mph 1015.4mb 64f